Time;durP1;ratioP1;P1;durP2;ratioP2;P2;SDS_P1;SDS_P2;PMS_P1;PMS_P2;Temp;Humidity;BMP_temperature;BMP_pressure;BME280_temperature;BME280_humidity;BME280_pressure;Samples;Min_cycle;Max_cycle;Signal;HPM_P1;HPM_P2
2023/05/21 00:01:05;;;;;;;15.73;14.13;;;;;;;17.06;64.44;99180.75;5028106;28;20038;-74
2023/05/21 00:03:32;;;;;;;18.08;16.08;;;;;;;17.03;64.86;99175.66;5028183;28;20097;-74
2023/05/21 00:06:00;;;;;;;15.88;14.32;;;;;;;16.69;64.80;99122.28;5028112;28;20048;-74
2023/05/21 00:08:27;;;;;;;16.33;14.55;;;;;;;17.24;64.90;99197.97;5027207;28;20096;-75
2023/05/21 00:10:53;;;;;;;17.38;14.88;;;;;;;17.23;64.91;99198.94;5028148;28;20056;-74
2023/05/21 00:13:20;;;;;;;17.55;15.75;;;;;;;17.19;64.70;99201.00;5028519;28;20041;-75
2023/05/21 00:15:48;;;;;;;16.13;13.93;;;;;;;16.92;65.22;99169.38;5027095;28;20088;-75
2023/05/21 00:18:15;;;;;;;17.83;14.68;;;;;;;17.12;65.00;99202.50;5028177;28;20042;-74
2023/05/21 00:20:42;;;;;;;17.05;15.25;;;;;;;17.11;65.08;99205.31;5027696;28;20037;-74
2023/05/21 00:23:09;;;;;;;15.50;13.90;;;;;;;16.79;65.32;99149.13;5027524;28;20257;-75
2023/05/21 00:25:35;;;;;;;17.23;15.52;;;;;;;16.62;64.87;99116.56;5027800;28;20041;-75
2023/05/21 00:28:02;;;;;;;18.80;15.57;;;;;;;16.27;65.41;99062.50;5027708;28;20100;-75
2023/05/21 00:30:29;;;;;;;16.27;14.65;;;;;;;16.84;65.38;99163.81;5028171;28;20189;-75
2023/05/21 00:33:01;;;;;;;18.33;15.45;;;;;;;16.84;65.33;99171.00;5027618;28;20213;-75
2023/05/21 00:35:27;;;;;;;17.42;15.63;;;;;;;17.04;65.77;99204.13;5027655;28;20117;-74
2023/05/21 00:37:54;;;;;;;17.38;14.88;;;;;;;16.84;65.34;99171.84;5027761;28;20345;-75
2023/05/21 00:40:21;;;;;;;16.98;15.13;;;;;;;17.04;65.18;99204.13;5027416;28;20041;-75
2023/05/21 00:42:48;;;;;;;17.08;14.73;;;;;;;16.80;65.50;99169.56;5027316;28;20042;-75
2023/05/21 00:45:15;;;;;;;17.27;15.48;;;;;;;16.99;65.74;99208.03;5027635;28;20042;-75
2023/05/21 00:47:43;;;;;;;16.85;15.15;;;;;;;16.64;65.39;99145.88;5027254;28;20041;-75
2023/05/21 00:50:13;;;;;;;17.05;15.30;;;;;;;16.99;65.84;99209.84;5027544;28;20114;-75
2023/05/21 00:52:41;;;;;;;19.25;15.20;;;;;;;16.94;65.84;99204.88;5026371;28;20129;-75
2023/05/21 00:55:09;;;;;;;17.92;15.43;;;;;;;16.70;65.97;99161.44;5027112;28;20104;-75
2023/05/21 00:57:37;;;;;;;16.15;14.35;;;;;;;16.38;65.93;99125.78;5027174;28;20099;-74
2023/05/21 01:00:07;;;;;;;15.82;14.15;;;;;;;16.87;65.72;99197.50;5027100;28;20092;-75
2023/05/21 01:02:35;;;;;;;16.42;14.82;;;;;;;16.27;65.68;99110.63;5026967;28;20038;-75
2023/05/21 01:05:04;;;;;;;16.05;14.35;;;;;;;16.54;66.22;99152.97;5027561;28;20053;-75
2023/05/21 01:07:34;;;;;;;17.92;15.45;;;;;;;16.77;66.07;99184.03;5027507;28;20046;-75
2023/05/21 01:10:03;;;;;;;16.02;14.27;;;;;;;16.76;65.99;99193.03;5026924;28;20033;-75
2023/05/21 01:12:31;;;;;;;15.60;14.00;;;;;;;16.56;66.33;99159.03;5026063;28;20042;-75
2023/05/21 01:14:59;;;;;;;16.90;15.10;;;;;;;16.74;66.47;99196.81;5026785;28;20047;-75
2023/05/21 01:17:30;;;;;;;17.52;13.88;;;;;;;16.50;66.08;99162.22;5027050;28;20298;-75
2023/05/21 01:19:58;;;;;;;16.35;14.07;;;;;;;16.43;66.37;99150.31;5025877;28;20038;-75
2023/05/21 01:22:27;;;;;;;16.83;14.18;;;;;;;16.65;66.36;99193.91;5025884;28;20210;-75
2023/05/21 01:24:55;;;;;;;16.88;14.15;;;;;;;15.99;66.23;99104.88;5026317;28;20122;-75
2023/05/21 01:27:22;;;;;;;16.00;14.35;;;;;;;16.62;66.69;99202.19;5025955;28;20046;-74
2023/05/21 01:29:49;;;;;;;17.65;15.45;;;;;;;16.61;66.45;99191.59;5026493;28;20050;-75
2023/05/21 01:32:23;;;;;;;17.02;15.27;;;;;;;16.17;66.76;99129.25;5025960;28;20042;-75
2023/05/21 01:34:59;;;;;;;16.20;14.50;;;;;;;16.52;66.97;99176.31;5027012;28;20226;-75
2023/05/21 01:37:31;;;;;;;20.83;14.40;;;;;;;16.27;66.64;99146.22;5025623;28;20237;-75
2023/05/21 01:40:08;;;;;;;16.13;14.50;;;;;;;16.49;67.27;99188.13;5026227;28;20241;-73
2023/05/21 01:42:37;;;;;;;16.48;14.88;;;;;;;16.46;67.03;99182.16;5026521;28;20193;-74
2023/05/21 01:45:06;;;;;;;17.25;15.48;;;;;;;16.15;66.51;99133.00;5026738;28;20282;-74
2023/05/21 01:47:36;;;;;;;16.40;14.73;;;;;;;16.45;66.46;99183.16;5026582;28;20048;-73
2023/05/21 01:50:04;;;;;;;16.00;14.30;;;;;;;16.43;66.81;99177.06;5025379;28;20042;-73
2023/05/21 01:52:31;;;;;;;16.00;14.43;;;;;;;16.39;66.99;99172.94;5025031;28;20064;-72
2023/05/21 01:54:59;;;;;;;15.48;13.93;;;;;;;16.36;67.09;99160.69;5026682;28;20046;-74
2023/05/21 01:57:27;;;;;;;16.60;14.82;;;;;;;16.34;67.09;99155.44;5026467;28;20244;-74
2023/05/21 01:59:55;;;;;;;16.65;14.95;;;;;;;16.18;66.81;99140.78;5026078;28;20057;-73
2023/05/21 02:02:22;;;;;;;15.45;13.90;;;;;;;16.33;67.22;99153.75;5026209;28;20042;-73
2023/05/21 02:04:49;;;;;;;16.08;14.38;;;;;;;15.98;66.62;99116.53;5026308;28;20064;-76
2023/05/21 02:07:17;;;;;;;17.63;15.70;;;;;;;16.26;67.11;99170.44;5026305;28;20072;-73
2023/05/21 02:09:43;;;;;;;15.73;13.55;;;;;;;16.25;67.33;99169.56;5026205;28;20046;-73
2023/05/21 02:12:10;;;;;;;17.65;15.55;;;;;;;16.23;67.04;99168.00;5026167;28;20044;-73
2023/05/21 02:14:39;;;;;;;16.95;15.18;;;;;;;16.19;67.41;99171.91;5025854;28;20053;-73
2023/05/21 02:17:06;;;;;;;16.60;14.90;;;;;;;16.17;67.14;99173.84;5025784;28;20069;-73
2023/05/21 02:19:33;;;;;;;15.50;13.90;;;;;;;16.11;67.69;99172.50;5026342;28;20286;-73
2023/05/21 02:22:00;;;;;;;16.38;14.70;;;;;;;16.07;67.51;99170.22;5024575;28;20060;-74
2023/05/21 02:24:27;;;;;;;15.80;14.20;;;;;;;16.08;67.62;99169.25;5026553;28;20237;-74
2023/05/21 02:26:53;;;;;;;17.90;15.13;;;;;;;16.03;67.55;99169.63;5025735;28;20053;-73
2023/05/21 02:29:20;;;;;;;16.45;14.73;;;;;;;16.01;67.67;99171.56;5024837;28;20121;-73
2023/05/21 02:31:49;;;;;;;15.90;14.23;;;;;;;15.98;67.88;99177.16;5026194;28;20100;-73
2023/05/21 02:34:19;;;;;;;18.98;17.05;;;;;;;15.95;67.95;99175.56;5025656;28;20340;-73
2023/05/21 02:36:47;;;;;;;15.85;14.20;;;;;;;15.78;67.89;99149.34;5025878;28;20113;-73
2023/05/21 02:39:14;;;;;;;15.77;14.20;;;;;;;15.93;67.79;99165.97;5026116;28;20045;-73
2023/05/21 02:41:40;;;;;;;16.55;14.90;;;;;;;15.95;67.83;99175.56;5025749;28;20076;-73
2023/05/21 02:44:07;;;;;;;16.38;14.70;;;;;;;15.95;67.91;99170.22;5027413;28;20042;-74
2023/05/21 02:46:34;;;;;;;16.42;14.25;;;;;;;15.65;67.90;99125.44;5028782;28;20052;-74
2023/05/21 02:49:02;;;;;;;15.65;13.77;;;;;;;15.53;67.91;99112.16;5029528;28;20041;-74
2023/05/21 02:51:29;;;;;;;15.48;13.90;;;;;;;15.87;67.89;99170.00;5029789;28;20341;-74
2023/05/21 02:53:56;;;;;;;15.73;14.23;;;;;;;15.62;67.87;99138.16;5029761;28;20038;-74
2023/05/21 02:56:23;;;;;;;15.27;13.68;;;;;;;15.83;68.13;99171.22;5028614;28;20034;-74
2023/05/21 02:58:51;;;;;;;16.27;14.52;;;;;;;15.83;67.89;99165.00;5029836;28;20128;-74
2023/05/21 03:01:18;;;;;;;17.27;15.57;;;;;;;15.79;67.84;99169.75;5029878;28;20037;-74
2023/05/21 03:03:45;;;;;;;15.18;13.57;;;;;;;15.77;67.80;99170.84;5029503;28;20290;-74
2023/05/21 03:06:13;;;;;;;14.80;13.20;;;;;;;15.77;68.28;99174.38;5029790;28;20057;-77
2023/05/21 03:08:39;;;;;;;14.85;13.35;;;;;;;15.73;68.36;99167.56;5028354;28;20038;-76
2023/05/21 03:11:06;;;;;;;14.77;13.27;;;;;;;15.70;68.08;99167.81;5028367;28;20038;-74
2023/05/21 03:13:33;;;;;;;14.27;12.80;;;;;;;13.55;68.10;98803.09;5029727;28;20046;-75
2023/05/21 03:15:59;;;;;;;15.85;14.15;;;;;;;15.57;68.10;99141.19;5029630;28;20045;-75
2023/05/21 03:18:27;;;;;;;14.95;13.40;;;;;;;15.67;68.42;99166.22;5028130;28;20201;-75
2023/05/21 03:20:54;;;;;;;14.27;12.85;;;;;;;15.68;68.17;99165.25;5028125;28;20100;-75
2023/05/21 03:23:22;;;;;;;14.55;13.13;;;;;;;15.67;68.23;99163.56;5028681;28;20113;-75
2023/05/21 03:25:49;;;;;;;14.00;12.60;;;;;;;15.66;67.97;99166.34;5029109;28;20093;-75
2023/05/21 03:28:16;;;;;;;16.17;13.38;;;;;;;15.64;68.20;99184.28;5029141;28;20092;-75
2023/05/21 03:30:45;;;;;;;16.35;14.68;;;;;;;15.61;68.36;99165.84;5029356;28;20066;-74
2023/05/21 03:33:12;;;;;;;16.08;14.02;;;;;;;15.58;68.73;99161.59;5028754;28;20042;-73
2023/05/21 03:35:39;;;;;;;14.95;13.40;;;;;;;15.24;68.64;99123.31;5028918;28;20053;-73
2023/05/21 03:38:06;;;;;;;16.55;14.23;;;;;;;15.58;68.44;99172.25;5028599;28;20042;-74
2023/05/21 03:40:34;;;;;;;15.60;14.07;;;;;;;15.58;68.65;99187.44;5029142;28;20037;-73
2023/05/21 03:43:01;;;;;;;18.92;16.20;;;;;;;15.58;68.82;99180.28;5028434;28;20041;-73
2023/05/21 03:45:27;;;;;;;18.20;14.18;;;;;;;15.55;68.46;99179.66;5028825;28;20048;-74
2023/05/21 03:47:54;;;;;;;15.88;14.27;;;;;;;15.38;68.69;99157.81;5028784;28;20289;-74
2023/05/21 03:50:21;;;;;;;15.70;14.15;;;;;;;15.54;68.89;99181.50;5027607;28;20324;-73
2023/05/21 03:52:47;;;;;;;16.45;14.75;;;;;;;15.52;68.99;99177.25;5027566;28;20034;-73
2023/05/21 03:55:14;;;;;;;17.60;14.60;;;;;;;15.30;68.80;99146.03;5026973;28;20315;-75
2023/05/21 03:57:43;;;;;;;17.13;15.40;;;;;;;15.52;69.05;99178.09;5028547;28;20050;-74
2023/05/21 04:00:10;;;;;;;16.30;14.68;;;;;;;15.30;69.10;99138.00;5028518;28;20056;-73
2023/05/21 04:02:36;;;;;;;17.60;15.75;;;;;;;15.55;69.13;99180.53;5027298;28;20044;-73
2023/05/21 04:05:03;;;;;;;16.30;14.68;;;;;;;15.56;68.83;99181.38;5028550;28;20057;-74
2023/05/21 04:07:30;;;;;;;15.70;14.05;;;;;;;15.57;69.09;99180.41;5028164;28;20052;-74
2023/05/21 04:09:57;;;;;;;17.50;15.55;;;;;;;15.57;68.76;99177.72;5028324;28;20046;-73
2023/05/21 04:12:23;;;;;;;19.67;14.35;;;;;;;15.56;69.16;99184.91;5027115;28;20352;-73
2023/05/21 04:14:52;;;;;;;17.83;15.43;;;;;;;15.57;69.32;99186.59;5027504;28;20281;-73
2023/05/21 04:17:19;;;;;;;16.25;14.52;;;;;;;15.57;68.84;99186.59;5027919;28;20037;-73
2023/05/21 04:19:46;;;;;;;16.23;13.85;;;;;;;15.57;68.91;99183.91;5028185;28;20053;-74
2023/05/21 04:22:13;;;;;;;15.23;13.63;;;;;;;15.58;68.91;99172.25;5026721;28;20050;-74
2023/05/21 04:24:39;;;;;;;14.80;13.38;;;;;;;15.58;69.10;99176.75;5027774;28;20045;-74
2023/05/21 04:27:08;;;;;;;14.65;13.18;;;;;;;15.59;68.88;99179.31;5027760;28;20056;-74
2023/05/21 04:29:36;;;;;;;14.77;13.35;;;;;;;15.60;68.91;99175.66;5028001;28;20053;-74
2023/05/21 04:32:05;;;;;;;15.77;13.85;;;;;;;15.60;69.32;99178.34;5026815;28;20324;-74
2023/05/21 04:34:32;;;;;;;18.95;16.50;;;;;;;15.62;69.32;99191.56;5026757;28;20064;-74
2023/05/21 04:36:59;;;;;;;19.80;17.05;;;;;;;15.64;69.31;99187.81;5027544;28;20052;-74
2023/05/21 04:39:27;;;;;;;15.75;14.18;;;;;;;15.52;69.58;99166.56;5027793;28;20103;-74
2023/05/21 04:41:55;;;;;;;15.23;13.68;;;;;;;15.67;69.18;99190.28;5028024;28;20301;-74
2023/05/21 04:44:22;;;;;;;15.20;13.40;;;;;;;15.68;68.99;99191.97;5026509;28;20042;-74
2023/05/21 04:46:49;;;;;;;14.13;12.68;;;;;;;15.71;69.14;99193.56;5027632;28;20075;-74
2023/05/21 04:49:17;;;;;;;14.20;12.80;;;;;;;15.72;69.27;99192.59;5027358;28;20037;-74
2023/05/21 04:51:45;;;;;;;14.05;12.68;;;;;;;15.61;69.20;99173.84;5027465;28;20034;-73
2023/05/21 04:54:12;;;;;;;14.07;12.68;;;;;;;15.77;69.16;99189.56;5026383;28;20050;-73
2023/05/21 04:56:39;;;;;;;14.50;12.95;;;;;;;15.80;68.90;99197.31;5027185;28;20052;-74
2023/05/21 04:59:05;;;;;;;19.25;13.95;;;;;;;15.82;68.89;99190.88;5026288;28;20037;-74
2023/05/21 05:01:34;;;;;;;13.50;12.07;;;;;;;15.83;69.22;99189.06;5027119;28;20310;-74
2023/05/21 05:04:00;;;;;;;15.32;13.27;;;;;;;15.86;68.87;99181.66;5026947;28;20051;-74
2023/05/21 05:06:28;;;;;;;13.30;11.95;;;;;;;15.89;69.16;99184.09;5025227;28;20064;-74
2023/05/21 05:08:55;;;;;;;15.30;13.70;;;;;;;15.92;68.87;99177.63;5027203;28;20298;-74
2023/05/21 05:11:22;;;;;;;14.45;12.93;;;;;;;15.95;68.92;99183.59;5026933;28;20142;-74
2023/05/21 05:13:49;;;;;;;12.77;11.48;;;;;;;15.99;68.60;99185.03;5026820;28;20041;-74
2023/05/21 05:16:17;;;;;;;14.63;12.30;;;;;;;16.02;68.47;99189.28;5026821;28;20088;-74
2023/05/21 05:18:43;;;;;;;14.90;13.18;;;;;;;16.03;68.88;99191.00;5026921;28;20102;-74
2023/05/21 05:21:10;;;;;;;13.77;11.93;;;;;;;16.06;68.90;99195.25;5027259;28;20048;-74
2023/05/21 05:23:38;;;;;;;14.75;13.25;;;;;;;16.09;68.60;99195.84;5025581;28;20046;-74
2023/05/21 05:26:05;;;;;;;14.60;13.05;;;;;;;15.85;68.71;99145.22;5026709;28;20049;-74
2023/05/21 05:28:32;;;;;;;14.38;12.88;;;;;;;16.14;68.32;99193.66;5026575;28;20042;-74
2023/05/21 05:30:58;;;;;;;13.88;12.48;;;;;;;16.18;68.27;99189.75;5025724;28;20042;-74
2023/05/21 05:33:25;;;;;;;13.10;11.70;;;;;;;16.22;68.20;99185.88;5025663;28;20294;-74
2023/05/21 05:35:52;;;;;;;12.68;11.40;;;;;;;16.27;67.99;99193.50;5026740;28;20093;-74
2023/05/21 05:38:19;;;;;;;14.63;13.13;;;;;;;16.30;68.01;99191.44;5026716;28;20092;-74
2023/05/21 05:40:47;;;;;;;12.60;11.30;;;;;;;16.36;67.82;99192.75;5026390;28;20056;-74
2023/05/21 05:43:14;;;;;;;13.93;12.48;;;;;;;16.38;67.50;99189.97;5026811;28;20109;-74
2023/05/21 05:45:41;;;;;;;12.70;10.88;;;;;;;16.42;67.22;99184.25;5025427;28;20044;-74
2023/05/21 05:48:07;;;;;;;12.68;11.40;;;;;;;16.44;66.94;99184.97;5026549;28;20202;-74
2023/05/21 05:50:34;;;;;;;14.55;12.07;;;;;;;16.48;67.29;99186.41;5025410;28;20038;-74
2023/05/21 05:53:01;;;;;;;12.05;10.75;;;;;;;16.49;66.62;99182.75;5026685;28;20085;-73
2023/05/21 05:55:27;;;;;;;11.75;10.60;;;;;;;16.51;66.12;99182.63;5025314;28;20120;-73
2023/05/21 05:57:55;;;;;;;12.70;11.43;;;;;;;16.55;66.37;99190.28;5026130;28;20048;-74
2023/05/21 06:00:22;;;;;;;12.95;11.55;;;;;;;16.58;65.65;99189.19;5026024;28;20053;-74
2023/05/21 06:02:49;;;;;;;12.38;10.95;;;;;;;16.61;65.58;99181.75;5026203;28;20061;-74
2023/05/21 06:05:16;;;;;;;13.90;10.43;;;;;;;16.38;65.22;99139.16;5026452;28;20042;-74
2023/05/21 06:07:43;;;;;;;12.13;10.68;;;;;;;16.56;65.23;99162.56;5025976;28;20373;-74
2023/05/21 06:10:10;;;;;;;13.07;11.23;;;;;;;16.74;65.05;99184.28;5025082;28;20038;-74
2023/05/21 06:12:37;;;;;;;12.40;11.10;;;;;;;16.78;64.86;99182.22;5026395;28;20045;-74
2023/05/21 06:15:06;;;;;;;13.90;10.70;;;;;;;16.81;64.52;99181.94;5025656;28;20285;-73
2023/05/21 06:17:32;;;;;;;12.15;10.10;;;;;;;16.62;64.46;99145.16;5025827;28;20038;-74
2023/05/21 06:19:59;;;;;;;12.38;10.52;;;;;;;16.87;64.22;99182.28;5026223;28;20056;-74
2023/05/21 06:22:26;;;;;;;12.63;10.50;;;;;;;16.93;63.91;99181.78;5025781;28;20078;-74
2023/05/21 06:24:52;;;;;;;15.10;11.93;;;;;;;16.97;63.63;99175.19;5025753;28;20041;-74
2023/05/21 06:27:19;;;;;;;11.05;10.02;;;;;;;17.00;63.34;99188.31;5026153;28;20056;-73
2023/05/21 06:29:46;;;;;;;11.02;9.48;;;;;;;17.05;63.36;99179.03;5024754;28;20047;-74
2023/05/21 06:32:14;;;;;;;11.38;9.75;;;;;;;17.10;63.18;99191.06;5024813;28;20065;-73
2023/05/21 06:34:41;;;;;;;12.35;10.88;;;;;;;16.91;62.82;99156.97;5024738;28;20045;-74
2023/05/21 06:37:08;;;;;;;11.15;10.05;;;;;;;17.19;62.60;99181.41;5026023;28;20144;-73
2023/05/21 06:39:34;;;;;;;13.85;8.98;;;;;;;17.25;62.61;99184.44;5025817;28;20053;-73
2023/05/21 06:42:01;;;;;;;11.80;10.00;;;;;;;17.31;62.40;99180.38;5024671;28;20336;-73
2023/05/21 06:44:28;;;;;;;10.98;9.35;;;;;;;17.26;62.07;99161.19;5025939;28;20037;-74
2023/05/21 06:46:55;;;;;;;10.02;8.88;;;;;;;17.45;62.07;99176.53;5025991;28;20046;-74
2023/05/21 06:49:23;;;;;;;10.38;9.40;;;;;;;17.35;61.51;99138.13;5025962;28;20112;-74
2023/05/21 06:51:50;;;;;;;9.88;8.85;;;;;;;17.65;61.30;99182.88;5025692;28;20053;-73
2023/05/21 06:54:16;;;;;;;11.30;9.65;;;;;;;17.56;60.83;99146.97;5025429;28;20191;-74
2023/05/21 06:56:43;;;;;;;11.55;9.65;;;;;;;17.90;60.42;99182.41;5025401;28;20128;-74
2023/05/21 06:59:10;;;;;;;11.98;9.77;;;;;;;18.03;60.15;99184.84;5024530;28;20183;-74
2023/05/21 07:01:36;;;;;;;12.45;11.05;;;;;;;18.17;59.55;99184.47;5025745;28;20046;-74
2023/05/21 07:04:04;;;;;;;10.93;9.80;;;;;;;18.09;59.58;99136.03;5025365;28;20201;-74
2023/05/21 07:06:33;;;;;;;11.32;10.15;;;;;;;18.54;59.01;99171.31;5025592;28;20033;-74
2023/05/21 07:09:00;;;;;;;12.18;10.00;;;;;;;18.70;58.43;99171.63;5025153;28;20060;-73
2023/05/21 07:11:27;;;;;;;12.40;10.20;;;;;;;18.87;58.00;99172.75;5024498;28;20220;-73
2023/05/21 07:13:55;;;;;;;11.48;10.07;;;;;;;18.99;57.77;99170.75;5025777;28;20064;-73
2023/05/21 07:16:22;;;;;;;10.40;9.35;;;;;;;19.18;57.61;99168.06;5024287;28;20209;-74
2023/05/21 07:18:48;;;;;;;9.98;8.98;;;;;;;19.41;56.81;99158.72;5025459;28;20101;-73
2023/05/21 07:21:15;;;;;;;11.43;10.23;;;;;;;19.58;56.24;99140.13;5024346;28;20041;-73
2023/05/21 07:23:43;;;;;;;12.10;10.85;;;;;;;19.88;55.95;99164.09;5024309;28;20320;-73
2023/05/21 07:26:11;;;;;;;11.60;10.40;;;;;;;20.09;55.22;99153.09;5024803;28;20033;-73
2023/05/21 07:28:37;;;;;;;13.70;10.15;;;;;;;19.46;54.73;99037.34;5025775;28;20097;-74
2023/05/21 07:31:04;;;;;;;10.23;9.20;;;;;;;20.38;54.85;99151.13;5028569;28;20099;-74
2023/05/21 07:33:31;;;;;;;12.57;9.48;;;;;;;20.62;54.84;99150.53;5028527;28;20056;-74
2023/05/21 07:35:58;;;;;;;11.40;8.52;;;;;;;20.93;54.30;99153.66;5028680;28;20046;-75
2023/05/21 07:38:25;;;;;;;10.00;9.00;;;;;;;21.25;53.86;99150.41;5028843;28;20050;-75
2023/05/21 07:40:53;;;;;;;10.63;9.52;;;;;;;21.46;53.44;99153.59;5027743;28;20088;-75
2023/05/21 07:43:19;;;;;;;9.70;8.68;;;;;;;21.58;52.84;99148.78;5028698;28;20046;-75
2023/05/21 07:45:46;;;;;;;11.02;9.40;;;;;;;21.63;52.51;99151.00;5029073;28;20056;-74
2023/05/21 07:48:13;;;;;;;10.40;9.38;;;;;;;21.80;52.58;99152.81;5028359;28;20368;-75
2023/05/21 07:50:40;;;;;;;10.32;8.30;;;;;;;22.00;52.22;99148.84;5028609;28;20052;-75
2023/05/21 07:53:07;;;;;;;13.18;9.20;;;;;;;22.04;51.31;99109.75;5028397;28;20049;-75
2023/05/21 07:55:33;;;;;;;10.88;8.80;;;;;;;22.43;50.87;99152.41;5028833;28;20041;-75
2023/05/21 07:58:02;;;;;;;10.23;8.85;;;;;;;22.64;50.90;99155.53;5028370;28;20053;-75
2023/05/21 08:00:28;;;;;;;10.13;9.13;;;;;;;22.81;50.55;99145.56;5028532;28;20246;-75
2023/05/21 08:02:55;;;;;;;9.70;8.80;;;;;;;22.82;50.14;99146.44;5028740;28;20094;-74
2023/05/21 08:05:23;;;;;;;10.13;9.13;;;;;;;22.82;50.23;99149.13;5028054;28;20226;-75
2023/05/21 08:07:49;;;;;;;10.15;9.15;;;;;;;22.81;50.16;99155.53;5028382;28;20054;-74
2023/05/21 08:10:16;;;;;;;10.82;8.82;;;;;;;22.06;50.27;99032.16;5028263;28;20046;-74
2023/05/21 08:12:43;;;;;;;9.18;8.15;;;;;;;22.64;50.39;99120.41;5026999;28;20327;-75
2023/05/21 08:15:11;;;;;;;10.77;9.70;;;;;;;22.83;49.71;99132.75;5028124;28;20041;-75
2023/05/21 08:17:38;;;;;;;9.27;8.38;;;;;;;22.98;50.12;99151.84;5027747;28;20042;-75
2023/05/21 08:20:06;;;;;;;12.18;9.40;;;;;;;22.92;49.96;99160.63;5027583;28;20042;-74
2023/05/21 08:22:33;;;;;;;10.15;8.52;;;;;;;21.38;49.84;98881.28;5027575;28;20069;-74
2023/05/21 08:25:00;;;;;;;9.90;8.48;;;;;;;23.04;49.77;99156.56;5026799;28;20101;-75
2023/05/21 08:27:26;;;;;;;10.07;8.55;;;;;;;23.04;50.04;99151.16;5027883;28;20056;-74
2023/05/21 08:29:53;;;;;;;9.90;8.90;;;;;;;23.14;49.55;99146.44;5027866;28;20046;-74
2023/05/21 08:32:21;;;;;;;9.52;7.53;;;;;;;23.26;49.01;99153.22;5028055;28;20038;-74
2023/05/21 08:34:48;;;;;;;9.38;8.48;;;;;;;23.46;49.20;99156.41;5026521;28;20030;-74
2023/05/21 08:37:17;;;;;;;9.35;8.45;;;;;;;23.56;48.77;99164.31;5027346;28;20042;-75
2023/05/21 08:39:43;;;;;;;8.20;7.18;;;;;;;23.62;48.72;99156.38;5027303;28;20321;-74
2023/05/21 08:42:19;;;;;;;10.48;8.82;;;;;;;23.56;46.72;99153.50;5027352;28;20175;-74
2023/05/21 08:44:52;;;;;;;10.73;7.53;;;;;;;23.52;47.46;99133.22;5027836;28;20049;-75
2023/05/21 08:47:25;;;;;;;12.43;8.57;;;;;;;23.77;47.22;99159.19;5027604;28;20320;-75
2023/05/21 08:49:53;;;;;;;12.23;7.82;;;;;;;23.66;47.78;99160.41;5027298;28;20053;-75
2023/05/21 08:52:20;;;;;;;10.32;7.57;;;;;;;23.52;48.19;99139.47;5027397;28;20053;-75
2023/05/21 08:54:49;;;;;;;9.02;8.20;;;;;;;23.73;47.83;99149.75;5027121;28;20034;-74
2023/05/21 08:57:18;;;;;;;8.43;7.63;;;;;;;23.79;47.56;99146.34;5026191;28;20037;-75
2023/05/21 08:59:45;;;;;;;7.28;6.53;;;;;;;23.79;46.75;99131.97;5026872;28;20038;-75
2023/05/21 09:02:14;;;;;;;9.75;7.72;;;;;;;23.07;47.23;99036.47;5026046;28;20034;-75
2023/05/21 09:04:47;;;;;;;7.70;6.90;;;;;;;23.61;46.68;99151.13;5026016;28;20080;-75
2023/05/21 09:07:14;;;;;;;8.15;7.35;;;;;;;23.65;47.66;99149.75;5027499;28;20104;-75
2023/05/21 09:09:47;;;;;;;8.55;7.60;;;;;;;23.61;45.64;99108.69;5027260;28;20301;-75
2023/05/21 09:12:14;;;;;;;7.65;6.35;;;;;;;23.87;46.46;99156.28;5026826;28;20105;-75
2023/05/21 09:14:43;;;;;;;7.47;6.68;;;;;;;23.67;47.02;99136.91;5026805;28;20050;-75
2023/05/21 09:17:12;;;;;;;10.05;7.07;;;;;;;23.67;46.98;99142.31;5026582;28;20290;-75
2023/05/21 09:19:56;;;;;;;10.35;7.13;;;;;;;23.76;44.98;99143.13;5026385;28;20052;-75
2023/05/21 09:22:24;;;;;;;8.52;7.03;;;;;;;23.64;46.50;99134.53;5024917;28;20320;-75
2023/05/21 09:24:51;;;;;;;7.80;6.20;;;;;;;23.65;46.75;99101.06;5025507;28;20041;-75
2023/05/21 09:27:18;;;;;;;6.90;6.20;;;;;;;24.01;45.91;99128.53;5009206;28;20055;-74
2023/05/21 09:29:45;;;;;;;7.88;6.50;;;;;;;24.02;45.73;99134.78;5026358;28;20038;-75
2023/05/21 09:32:13;;;;;;;8.63;6.30;;;;;;;23.99;45.70;99127.88;5026542;28;20050;-75
2023/05/21 09:34:41;;;;;;;11.45;7.25;;;;;;;23.94;45.66;99122.94;5026610;28;20092;-75
2023/05/21 09:37:09;;;;;;;7.25;6.47;;;;;;;23.84;45.83;99137.69;5026421;28;20108;-75
2023/05/21 09:39:41;;;;;;;7.35;6.43;;;;;;;23.82;45.07;99131.63;5026670;28;20297;-75
2023/05/21 09:42:08;;;;;;;7.72;5.97;;;;;;;23.87;46.13;99130.06;5026871;28;20060;-75
2023/05/21 09:44:35;;;;;;;9.07;7.00;;;;;;;23.68;45.08;99098.00;5026362;28;20037;-75
2023/05/21 09:47:02;;;;;;;7.57;5.97;;;;;;;23.87;45.16;99127.38;5026745;28;20238;-74
2023/05/21 09:49:30;;;;;;;7.18;6.38;;;;;;;23.90;45.15;99131.59;5026181;28;20096;-74
2023/05/21 09:51:57;;;;;;;7.25;6.13;;;;;;;23.92;45.01;99130.41;5025360;28;20041;-74
2023/05/21 09:54:24;;;;;;;7.57;6.60;;;;;;;23.75;44.96;99093.59;5025998;28;20077;-74
2023/05/21 09:56:53;;;;;;;11.23;6.63;;;;;;;24.07;44.55;99126.97;5026142;28;20053;-74
2023/05/21 09:59:21;;;;;;;6.97;5.95;;;;;;;24.11;44.61;99133.72;5026348;28;20053;-74
2023/05/21 10:01:51;;;;;;;10.07;6.32;;;;;;;24.00;43.93;99124.13;5025348;28;20053;-74
2023/05/21 10:04:18;;;;;;;6.93;6.22;;;;;;;23.99;44.57;99122.44;5025477;28;20096;-74
2023/05/21 10:06:47;;;;;;;7.30;5.97;;;;;;;23.62;44.66;99096.00;5025812;28;20040;-74
2023/05/21 10:09:18;;;;;;;6.00;5.38;;;;;;;23.84;45.26;99132.28;5025890;28;20045;-74
2023/05/21 10:11:47;;;;;;;7.60;6.25;;;;;;;23.88;44.30;99125.50;5025641;28;20038;-74
2023/05/21 10:14:19;;;;;;;9.68;6.60;;;;;;;23.95;43.83;99127.34;5025848;28;20294;-74
2023/05/21 10:16:48;;;;;;;8.35;6.80;;;;;;;24.05;44.15;99126.31;5025817;28;20105;-74
2023/05/21 10:19:15;;;;;;;9.98;6.20;;;;;;;23.60;44.24;99038.53;5025224;28;20050;-74
2023/05/21 10:21:42;;;;;;;6.57;5.88;;;;;;;24.24;44.08;99131.28;5024152;28;20065;-74
2023/05/21 10:24:10;;;;;;;7.75;6.10;;;;;;;24.29;43.97;99124.31;5025227;28;20048;-74
2023/05/21 10:26:38;;;;;;;8.90;6.40;;;;;;;24.36;43.01;99121.75;5025592;28;20293;-74
2023/05/21 10:29:05;;;;;;;7.47;6.13;;;;;;;24.37;43.18;99123.44;5025290;28;20092;-74
2023/05/21 10:31:33;;;;;;;6.68;5.97;;;;;;;24.40;42.82;99117.66;5025625;28;20226;-75
2023/05/21 10:34:01;;;;;;;6.57;5.88;;;;;;;24.43;43.24;99122.72;5025668;28;20186;-75
2023/05/21 10:36:30;;;;;;;6.28;5.40;;;;;;;24.16;42.95;99110.53;5025762;28;20065;-75
2023/05/21 10:39:00;;;;;;;9.55;6.80;;;;;;;24.29;43.35;99113.50;5025284;28;20053;-74
2023/05/21 10:41:31;;;;;;;7.22;5.90;;;;;;;24.26;43.23;99099.47;5025277;28;20064;-74
2023/05/21 10:44:10;;;;;;;7.93;6.25;;;;;;;24.33;41.96;99100.44;5025484;28;20046;-74
2023/05/21 10:47:13;;;;;;;7.15;5.85;;;;;;;24.44;41.48;99091.06;5025311;28;20145;-74
2023/05/21 10:49:57;;;;;;;7.45;6.32;;;;;;;24.32;40.01;99063.56;5025506;28;20042;-74
2023/05/21 10:52:42;;;;;;;6.88;5.38;;;;;;;24.55;40.17;99093.34;5024709;28;20285;-74
2023/05/21 10:55:20;;;;;;;9.77;6.78;;;;;;;24.49;41.46;99094.91;5024489;28;20042;-75
2023/05/21 10:58:12;;;;;;;7.40;6.70;;;;;;;24.37;40.10;99071.13;5025540;28;20049;-75
2023/05/21 11:00:40;;;;;;;7.78;6.18;;;;;;;24.48;42.19;99089.69;5025447;28;20065;-74
2023/05/21 11:03:08;;;;;;;7.30;6.03;;;;;;;22.58;41.42;98764.59;5025260;28;20105;-74
2023/05/21 11:05:41;;;;;;;7.85;7.05;;;;;;;24.57;39.36;99092.16;5028451;28;20320;-74
2023/05/21 11:08:21;;;;;;;8.18;5.97;;;;;;;24.52;39.47;99089.13;5028641;28;20049;-74
2023/05/21 11:10:53;;;;;;;6.85;6.15;;;;;;;24.23;40.68;99056.50;5028853;28;20072;-74
2023/05/21 11:13:20;;;;;;;9.82;8.48;;;;;;;24.56;41.77;99090.47;5029311;28;20048;-75
2023/05/21 11:16:06;;;;;;;8.18;6.88;;;;;;;23.84;40.21;98973.47;5028420;28;20065;-74
2023/05/21 11:19:02;;;;;;;7.55;6.75;;;;;;;24.40;39.39;99060.78;5029012;28;20045;-75
2023/05/21 11:21:35;;;;;;;7.32;5.90;;;;;;;24.56;40.63;99081.50;4995253;28;20302;-75
2023/05/21 11:24:07;;;;;;;8.02;6.32;;;;;;;24.61;40.95;99092.63;5028908;28;20135;-75
2023/05/21 11:27:01;;;;;;;10.95;6.47;;;;;;;24.59;39.76;99103.66;5029322;28;20034;-74